LJPZ/POW METAR and TAF weather

Enter ICAO airport designator
Station Type Date Time Source
LJPZ METAR 2022/09/26 10:00 UTC NOAA

LJPZ 261000Z 14003KT 090V220 9999 FEW020 FEW030TCU BKN250 21/15 Q1007


Station Type Date Time Source
LJPZ Decoded METAR 2022/09/26 10:00 UTC NOAA

Portoroz, Slovenia (LJPZ) 45-31N 013-34E
Sep 26, 2022 - 06:00 AM EDT / 2022.09.26 1000 UTC
Wind: from the SE (140 degrees) at 3 MPH (3 KT) (direction variable):0
Visibility: greater than 7 mile(s):0
Sky conditions: mostly cloudy
Weather: Towering cumulus clouds observed
Temperature: 69 F (21 C)
Dew Point: 59 F (15 C)
Relative Humidity: 68%
Pressure (altimeter): 29.74 in. Hg (1007 hPa)
ob: LJPZ 261000Z 14003KT 090V220 9999 FEW020 FEW030TCU BKN250 21/15 Q1007
cycle: 10

Station Type Date Time Source
LJPZ TAF 2020/09/27 12:21 UTC NOAA

TAF TAF LJPZ 271100Z 2712/2821 30003KT 9999 FEW050 PROB30
TEMPO 2712/2718 -SHRA SCT040TCU BKN070
BECMG 2718/2720 06012G25KT RA

Example: see airport list